| time (UTC) | temp C | wind direction | speed KPH | gust KPH | rain 1hr cm | rain 24hr cm | rain mn cm | humidity % | barometer mb |
| 20260503212025 | 22 | 328 | 8.0 | 14.5 | 0.00 | 0.00 | 0.00 | 58 | 1011.9 |
| 20260503211538 | 22 | 342 | 9.7 | 14.5 | 0.00 | 0.00 | 0.00 | 60 | 1011.9 |
| 20260503211029 | 22 | 302 | 8.0 | 12.9 | 0.00 | 0.00 | 0.00 | 61 | 1012.0 |
| 20260503210533 | 22 | 343 | 8.0 | 12.9 | 0.00 | 0.00 | 0.00 | 60 | 1012.0 |
| 20260503210041 | 22 | 338 | 9.7 | 12.9 | 0.00 | 0.00 | 0.00 | 59 | 1012.1 |
| 20260503205533 | 22 | 304 | 9.7 | 12.9 | 0.00 | 0.00 | 0.00 | 58 | 1012.1 |
| 20260503205037 | 22 | 344 | 8.0 | 11.3 | 0.00 | 0.00 | 0.00 | 58 | 1012.2 |
| 20260503204528 | 22 | 335 | 9.7 | 11.3 | 0.00 | 0.00 | 0.00 | 59 | 1012.3 |
| 20260503204040 | 21 | 299 | 6.4 | 9.7 | 0.00 | 0.00 | 0.00 | 60 | 1012.2 |
| 20260503203543 | 21 | 309 | 6.4 | 11.3 | 0.00 | 0.00 | 0.00 | 60 | 1012.3 |
| 20260503203054 | 21 | 298 | 8.0 | 11.3 | 0.00 | 0.00 | 0.00 | 61 | 1012.3 |
| 20260503202525 | 21 | 342 | 9.7 | 11.3 | 0.00 | 0.00 | 0.00 | 61 | 1012.3 |
| 20260503202056 | 21 | 352 | 6.4 | 11.3 | 0.00 | 0.00 | 0.00 | 60 | 1012.3 |
| 20260503201544 | 21 | 285 | 8.0 | 11.3 | 0.00 | 0.00 | 0.00 | 60 | 1012.3 |
| 20260503200538 | 21 | 330 | 8.0 | 11.3 | 0.00 | 0.00 | 0.00 | 62 | 1012.5 |
| 20260503200046 | 20 | 323 | 8.0 | 9.7 | 0.00 | 0.00 | 0.00 | 62 | 1012.6 |
| 20260503195530 | 20 | 345 | 8.0 | 9.7 | 0.00 | 0.00 | 0.00 | 61 | 1012.7 |
| 20260503195042 | 20 | 337 | 8.0 | 9.7 | 0.00 | 0.00 | 0.00 | 62 | 1012.7 |
| 20260503194525 | 20 | 318 | 6.4 | 9.7 | 0.00 | 0.00 | 0.00 | 62 | 1012.8 |
| 20260503194037 | 20 | 347 | 6.4 | 9.7 | 0.00 | 0.00 | 0.00 | 64 | 1012.8 |
| 20260503193549 | 20 | 355 | 6.4 | 9.7 | 0.00 | 0.00 | 0.00 | 65 | 1012.9 |
| 20260503193040 | 19 | 330 | 6.4 | 8.0 | 0.00 | 0.00 | 0.00 | 66 | 1013.0 |
| 20260503192523 | 18 | 330 | 6.4 | 8.0 | 0.00 | 0.00 | 0.00 | 67 | 1013.1 |
| 20260503192105 | 18 | 335 | 4.8 | 9.7 | 0.00 | 0.00 | 0.00 | 68 | 1013.1 |
| 20260503191526 | 18 | 317 | 4.8 | 9.7 | 0.00 | 0.00 | 0.00 | 69 | 1013.1 |
| 20260503191038 | 18 | 330 | 6.4 | 9.7 | 0.00 | 0.00 | 0.00 | 70 | 1013.1 |
| 20260503190550 | 18 | 276 | 4.8 | 9.7 | 0.00 | 0.00 | 0.00 | 71 | 1013.3 |
| 20260503190031 | 18 | 285 | 4.8 | 11.3 | 0.00 | 0.00 | 0.00 | 72 | 1013.3 |
| 20260503185535 | 18 | 290 | 4.8 | 11.3 | 0.00 | 0.00 | 0.00 | 72 | 1013.2 |
| 20260503185027 | 18 | 315 | 4.8 | 9.7 | 0.00 | 0.00 | 0.00 | 72 | 1013.3 |
| 20260503184539 | 18 | 289 | 6.4 | 9.7 | 0.00 | 0.00 | 0.00 | 73 | 1013.3 |
| 20260503184031 | 18 | 294 | 4.8 | 11.3 | 0.00 | 0.00 | 0.00 | 74 | 1013.4 |
| 20260503183534 | 17 | 337 | 6.4 | 11.3 | 0.00 | 0.00 | 0.00 | 73 | 1013.4 |
| 20260503183027 | 18 | 306 | 8.0 | 14.5 | 0.00 | 0.00 | 0.00 | 73 | 1013.4 |
| 20260503182537 | 17 | 285 | 9.7 | 14.5 | 0.00 | 0.00 | 0.00 | 70 | 1013.5 |
| 20260503182047 | 18 | 326 | 8.0 | 16.1 | 0.00 | 0.00 | 0.00 | 69 | 1013.5 |
| 20260503181530 | 17 | 344 | 9.7 | 16.1 | 0.00 | 0.00 | 0.00 | 70 | 1013.7 |
| 20260503181040 | 17 | 324 | 9.7 | 14.5 | 0.00 | 0.00 | 0.00 | 70 | 1013.7 |
| 20260503180524 | 17 | 318 | 8.0 | 14.5 | 0.00 | 0.00 | 0.00 | 71 | 1013.8 |
| 20260503180036 | 18 | 302 | 9.7 | 14.5 | 0.00 | 0.00 | 0.00 | 71 | 1013.8 |
| 20260503175529 | 18 | 303 | 9.7 | 14.5 | 0.00 | 0.00 | 0.00 | 73 | 1013.8 |
| 20260503175032 | 18 | 304 | 9.7 | 14.5 | 0.00 | 0.00 | 0.00 | 74 | 1013.9 |
| 20260503174524 | 18 | 298 | 8.0 | 11.3 | 0.00 | 0.00 | 0.00 | 73 | 1013.9 |
| 20260503174031 | 17 | 304 | 8.0 | 12.9 | 0.00 | 0.00 | 0.00 | 73 | 1013.9 |
| 20260503173533 | 17 | 285 | 8.0 | 14.5 | 0.00 | 0.00 | 0.00 | 74 | 1014.0 |
| 20260503173025 | 17 | 344 | 8.0 | 14.5 | 0.00 | 0.00 | 0.00 | 74 | 1013.9 |
| 20260503172523 | 17 | 349 | 6.4 | 12.9 | 0.00 | 0.00 | 0.00 | 75 | 1014.0 |
| 20260503172036 | 17 | 287 | 8.0 | 11.3 | 0.00 | 0.00 | 0.00 | 75 | 1014.1 |
| 20260503171528 | 17 | 300 | 8.0 | 11.3 | 0.00 | 0.00 | 0.00 | 76 | 1014.2 |
| 20260503171100 | 16 | 298 | 6.4 | 9.7 | 0.00 | 0.00 | 0.00 | 78 | 1014.1 |
| 20260503170530 | 16 | 342 | 6.4 | 11.3 | 0.00 | 0.00 | 0.00 | 79 | 1014.2 |
| 20260503150538 | 13 | 286 | 4.8 | 8.0 | 0.00 | 0.00 | 0.00 | 86 | 1014.4 |
| 20260503131025 | 12 | 299 | 3.2 | 6.4 | 0.00 | 0.00 | 0.00 | 86 | 1013.8 |
| 20260503130537 | 12 | 279 | 1.6 | 6.4 | 0.00 | 0.00 | 0.00 | 86 | 1013.8 |
| 20260503110526 | 13 | 247 | 0.0 | 0.0 | 0.00 | 0.00 | 0.00 | 82 | 1014.0 |
| 20260503081534 | 16 | 238 | 1.6 | 4.8 | 0.00 | 0.00 | 0.00 | 65 | 1013.9 |
| 20260503081045 | 16 | 273 | 1.6 | 4.8 | 0.00 | 0.00 | 0.00 | 65 | 1013.9 |
| 20260503080557 | 16 | 265 | 3.2 | 4.8 | 0.00 | 0.00 | 0.00 | 65 | 1014.0 |
| 20260503072549 | 16 | 249 | 1.6 | 3.2 | 0.00 | 0.00 | 0.00 | 67 | 1014.0 |
| 20260503072033 | 16 | 264 | 1.6 | 3.2 | 0.00 | 0.00 | 0.00 | 68 | 1013.9 |
| 20260503071524 | 16 | 250 | 1.6 | 3.2 | 0.00 | 0.00 | 0.00 | 68 | 1013.9 |
| 20260503071028 | 16 | 249 | 1.6 | 3.2 | 0.00 | 0.00 | 0.00 | 69 | 1013.9 |
| 20260503070541 | 16 | 249 | 0.0 | 3.2 | 0.00 | 0.00 | 0.00 | 70 | 1013.9 |
| 20260503055031 | 20 | 298 | 4.8 | 14.5 | 0.00 | 0.00 | 0.00 | 49 | 1013.6 |
| 20260503054534 | 20 | 294 | 6.4 | 19.3 | 0.00 | 0.00 | 0.00 | 49 | 1013.6 |
| 20260503054026 | 20 | 296 | 9.7 | 19.3 | 0.00 | 0.00 | 0.00 | 50 | 1013.6 |
| 20260503053538 | 20 | 307 | 11.3 | 20.9 | 0.00 | 0.00 | 0.00 | 48 | 1013.6 |
| 20260503053039 | 20 | 352 | 11.3 | 20.9 | 0.00 | 0.00 | 0.00 | 49 | 1013.7 |
| 20260503052530 | 20 | 330 | 9.7 | 19.3 | 0.00 | 0.00 | 0.00 | 49 | 1013.6 |
| 20260503052043 | 20 | 295 | 9.7 | 19.3 | 0.00 | 0.00 | 0.00 | 51 | 1013.6 |
| 20260503051525 | 20 | 296 | 11.3 | 20.9 | 0.00 | 0.00 | 0.00 | 49 | 1013.6 |
| 20260503051036 | 20 | 274 | 9.7 | 20.9 | 0.00 | 0.00 | 0.00 | 50 | 1013.7 |
| 20260503050548 | 19 | 284 | 4.8 | 19.3 | 0.00 | 0.00 | 0.00 | 51 | 1013.6 |
| 20260503050039 | 19 | 299 | 9.7 | 19.3 | 0.00 | 0.00 | 0.00 | 51 | 1013.6 |
| 20260503045550 | 19 | 269 | 6.4 | 17.7 | 0.00 | 0.00 | 0.00 | 51 | 1013.5 |
| 20260503045032 | 19 | 319 | 8.0 | 19.3 | 0.00 | 0.00 | 0.00 | 53 | 1013.5 |
| 20260503044545 | 19 | 266 | 11.3 | 20.9 | 0.00 | 0.00 | 0.00 | 51 | 1013.5 |
| 20260503044024 | 19 | 336 | 12.9 | 24.1 | 0.00 | 0.00 | 0.00 | 52 | 1013.4 |
| 20260503043532 | 18 | 266 | 9.7 | 24.1 | 0.00 | 0.00 | 0.00 | 54 | 1013.4 |
| 20260503043044 | 18 | 246 | 8.0 | 17.7 | 0.00 | 0.00 | 0.00 | 58 | 1013.3 |
| 20260503042524 | 18 | 314 | 6.4 | 14.5 | 0.00 | 0.00 | 0.00 | 57 | 1013.3 |
| 20260503042036 | 18 | 290 | 8.0 | 19.3 | 0.00 | 0.00 | 0.00 | 57 | 1013.2 |
| 20260503041528 | 18 | 347 | 6.4 | 19.3 | 0.00 | 0.00 | 0.00 | 57 | 1013.1 |
| 20260503041038 | 18 | 269 | 9.7 | 16.1 | 0.00 | 0.00 | 0.00 | 57 | 1013.2 |
| 20260503040540 | 18 | 241 | 8.0 | 16.1 | 0.00 | 0.00 | 0.00 | 60 | 1013.2 |
| 20260503040031 | 18 | 258 | 6.4 | 12.9 | 0.00 | 0.00 | 0.00 | 59 | 1013.0 |
| 20260503035543 | 18 | 247 | 4.8 | 12.9 | 0.00 | 0.00 | 0.00 | 61 | 1013.0 |
| 20260503035026 | 18 | 249 | 4.8 | 9.7 | 0.00 | 0.00 | 0.00 | 63 | 1012.9 |
| 20260503034539 | 18 | 249 | 4.8 | 11.3 | 0.00 | 0.00 | 0.00 | 61 | 1012.9 |
| 20260503034050 | 18 | 276 | 6.4 | 11.3 | 0.00 | 0.00 | 0.00 | 61 | 1012.9 |
| 20260503033533 | 18 | 247 | 4.8 | 9.7 | 0.00 | 0.00 | 0.00 | 60 | 1012.8 |
| 20260503033045 | 18 | 232 | 4.8 | 9.7 | 0.00 | 0.00 | 0.00 | 60 | 1012.8 |
| 20260503032529 | 18 | 278 | 4.8 | 8.0 | 0.00 | 0.00 | 0.00 | 61 | 1012.7 |
| 20260503032041 | 18 | 271 | 3.2 | 8.0 | 0.00 | 0.00 | 0.00 | 60 | 1012.7 |
| 20260503031525 | 18 | 260 | 3.2 | 11.3 | 0.00 | 0.00 | 0.00 | 62 | 1012.8 |
| 20260503031037 | 18 | 290 | 6.4 | 11.3 | 0.00 | 0.00 | 0.00 | 61 | 1012.6 |
| 20260503030530 | 18 | 262 | 4.8 | 12.9 | 0.00 | 0.00 | 0.00 | 61 | 1012.7 |
| 20260503030033 | 18 | 265 | 4.8 | 12.9 | 0.00 | 0.00 | 0.00 | 61 | 1012.6 |
| 20260503025544 | 18 | 314 | 4.8 | 8.0 | 0.00 | 0.00 | 0.00 | 61 | 1012.5 |
| 20260503025048 | 18 | 277 | 3.2 | 11.3 | 0.00 | 0.00 | 0.00 | 63 | 1012.5 |
| 20260503024540 | 18 | 283 | 4.8 | 11.3 | 0.00 | 0.00 | 0.00 | 63 | 1012.5 |
| 20260503024051 | 18 | 281 | 4.8 | 6.4 | 0.00 | 0.00 | 0.00 | 66 | 1012.5 |
| 20260503023541 | 17 | 274 | 3.2 | 6.4 | 0.00 | 0.00 | 0.00 | 69 | 1012.5 |
| 20260503023023 | 17 | 289 | 4.8 | 9.7 | 0.00 | 0.00 | 0.00 | 72 | 1012.5 |
| 20260503022556 | 17 | 283 | 3.2 | 9.7 | 0.00 | 0.00 | 0.00 | 71 | 1012.5 |
| 20260503022026 | 17 | 285 | 3.2 | 12.9 | 0.00 | 0.00 | 0.00 | 71 | 1012.5 |
| 20260503021537 | 17 | 300 | 6.4 | 12.9 | 0.00 | 0.00 | 0.00 | 72 | 1012.6 |
| 20260503021036 | 17 | 302 | 6.4 | 12.9 | 0.00 | 0.00 | 0.00 | 73 | 1012.6 |
| 20260503020548 | 17 | 333 | 6.4 | 9.7 | 0.00 | 0.00 | 0.00 | 74 | 1012.6 |
| 20260503020031 | 17 | 297 | 4.8 | 9.7 | 0.00 | 0.00 | 0.00 | 74 | 1012.6 |
| 20260503015542 | 18 | 301 | 6.4 | 9.7 | 0.00 | 0.00 | 0.00 | 74 | 1012.6 |
| 20260503015037 | 18 | 309 | 6.4 | 9.7 | 0.00 | 0.00 | 0.00 | 72 | 1012.7 |
| 20260503014529 | 18 | 304 | 3.2 | 8.0 | 0.00 | 0.00 | 0.00 | 69 | 1012.7 |
| 20260503014040 | 18 | 276 | 3.2 | 11.3 | 0.00 | 0.00 | 0.00 | 67 | 1012.8 |
| 20260503013612 | 18 | 298 | 6.4 | 11.3 | 0.00 | 0.00 | 0.00 | 66 | 1012.9 |
| 20260503013033 | 18 | 284 | 4.8 | 14.5 | 0.00 | 0.00 | 0.00 | 66 | 1012.9 |
| 20260503012526 | 18 | 292 | 6.4 | 16.1 | 0.00 | 0.00 | 0.00 | 66 | 1012.9 |
| 20260503012030 | 18 | 317 | 9.7 | 16.1 | 0.00 | 0.00 | 0.00 | 69 | 1013.0 |
| 20260503011541 | 18 | 273 | 6.4 | 12.9 | 0.00 | 0.00 | 0.00 | 74 | 1013.0 |
| 20260503011031 | 18 | 290 | 9.7 | 12.9 | 0.00 | 0.00 | 0.00 | 73 | 1013.1 |
| 20260503010543 | 18 | 276 | 4.8 | 11.3 | 0.00 | 0.00 | 0.00 | 70 | 1013.0 |
| 20260503010045 | 18 | 298 | 6.4 | 14.5 | 0.00 | 0.00 | 0.00 | 73 | 1013.1 |
| 20260503005536 | 20 | 346 | 8.0 | 14.5 | 0.00 | 0.00 | 0.00 | 69 | 1013.1 |
| 20260503005029 | 20 | 307 | 8.0 | 14.5 | 0.00 | 0.00 | 0.00 | 62 | 1013.2 |
| 20260503004533 | 20 | 316 | 9.7 | 20.9 | 0.00 | 0.00 | 0.00 | 61 | 1013.1 |
| 20260503004025 | 20 | 310 | 11.3 | 20.9 | 0.00 | 0.00 | 0.00 | 60 | 1013.1 |
| 20260503003558 | 20 | 309 | 9.7 | 17.7 | 0.00 | 0.00 | 0.00 | 60 | 1013.1 |
| 20260503003049 | 20 | 297 | 9.7 | 17.7 | 0.00 | 0.00 | 0.00 | 61 | 1013.1 |
| 20260503002531 | 21 | 296 | 11.3 | 17.7 | 0.00 | 0.00 | 0.00 | 61 | 1013.0 |
| 20260503002059 | 20 | 320 | 9.7 | 19.3 | 0.00 | 0.00 | 0.00 | 61 | 1013.0 |
| 20260503001529 | 20 | 297 | 11.3 | 19.3 | 0.00 | 0.00 | 0.00 | 61 | 1013.0 |
| 20260503001032 | 21 | 304 | 8.0 | 14.5 | 0.00 | 0.00 | 0.00 | 61 | 1013.2 |
| 20260503000524 | 21 | 284 | 6.4 | 14.5 | 0.00 | 0.00 | 0.00 | 62 | 1013.1 |
| 20260503000037 | 20 | 318 | 9.7 | 14.5 | 0.00 | 0.00 | 0.00 | 62 | 1013.3 |
| 20260502235540 | 20 | 304 | 6.4 | 14.5 | 0.00 | 0.00 | 0.00 | 62 | 1013.3 |
| 20260502235030 | 20 | 299 | 8.0 | 16.1 | 0.00 | 0.00 | 0.00 | 62 | 1013.4 |
| 20260502234541 | 21 | 305 | 9.7 | 16.1 | 0.00 | 0.00 | 0.00 | 62 | 1013.3 |
| 20260502234037 | 21 | 278 | 6.4 | 12.9 | 0.00 | 0.00 | 0.00 | 63 | 1013.4 |
| 20260502233530 | 21 | 315 | 8.0 | 14.5 | 0.00 | 0.00 | 0.00 | 62 | 1013.5 |
| 20260502233041 | 21 | 328 | 8.0 | 14.5 | 0.00 | 0.00 | 0.00 | 62 | 1013.5 |
| 20260502232554 | 21 | 314 | 8.0 | 14.5 | 0.00 | 0.00 | 0.00 | 61 | 1013.7 |
| 20260502232043 | 21 | 290 | 6.4 | 17.7 | 0.00 | 0.00 | 0.00 | 62 | 1013.8 |
| 20260502231526 | 21 | 318 | 4.8 | 17.7 | 0.00 | 0.00 | 0.00 | 63 | 1013.9 |
| 20260502231038 | 21 | 323 | 8.0 | 16.1 | 0.00 | 0.00 | 0.00 | 64 | 1013.9 |
| 20260502230549 | 21 | 358 | 9.7 | 16.1 | 0.00 | 0.00 | 0.00 | 64 | 1013.9 |
| 20260502230025 | 21 | 281 | 9.7 | 17.7 | 0.00 | 0.00 | 0.00 | 63 | 1013.9 |
| 20260502225606 | 21 | 342 | 11.3 | 17.7 | 0.00 | 0.00 | 0.00 | 61 | 1014.0 |
| 20260502225028 | 21 | 335 | 9.7 | 17.7 | 0.00 | 0.00 | 0.00 | 63 | 1014.1 |
| 20260502224540 | 21 | 328 | 12.9 | 17.7 | 0.00 | 0.00 | 0.00 | 63 | 1014.2 |
| 20260502224023 | 20 | 325 | 12.9 | 19.3 | 0.00 | 0.00 | 0.00 | 63 | 1014.3 |
| 20260502223556 | 20 | 311 | 14.5 | 20.9 | 0.00 | 0.00 | 0.00 | 64 | 1014.3 |
| 20260502223026 | 21 | 324 | 14.5 | 20.9 | 0.00 | 0.00 | 0.00 | 63 | 1014.4 |
| 20260502222538 | 20 | 324 | 12.9 | 19.3 | 0.00 | 0.00 | 0.00 | 65 | 1014.4 |
| 20260502222038 | 20 | 350 | 14.5 | 17.7 | 0.00 | 0.00 | 0.00 | 66 | 1014.5 |
| 20260502221550 | 20 | 339 | 12.9 | 20.9 | 0.00 | 0.00 | 0.00 | 67 | 1014.6 |
| 20260502221040 | 20 | 305 | 16.1 | 20.9 | 0.00 | 0.00 | 0.00 | 66 | 1014.7 |
| 20260502220523 | 20 | 323 | 14.5 | 20.9 | 0.00 | 0.00 | 0.00 | 66 | 1014.6 |
| 20260502220035 | 20 | 335 | 16.1 | 20.9 | 0.00 | 0.00 | 0.00 | 66 | 1014.7 |
| 20260502215548 | 20 | 337 | 12.9 | 17.7 | 0.00 | 0.00 | 0.00 | 67 | 1014.8 |
| 20260502215055 | 20 | 340 | 12.9 | 17.7 | 0.00 | 0.00 | 0.00 | 67 | 1014.9 |
| 20260502214542 | 20 | 336 | 11.3 | 16.1 | 0.00 | 0.00 | 0.00 | 69 | 1014.9 |
| 20260502214050 | 20 | 337 | 12.9 | 19.3 | 0.00 | 0.00 | 0.00 | 67 | 1015.0 |
| 20260502213531 | 19 | 340 | 12.9 | 19.3 | 0.00 | 0.00 | 0.00 | 68 | 1015.0 |
| 20260502213044 | 19 | 328 | 14.5 | 17.7 | 0.00 | 0.00 | 0.00 | 68 | 1015.1 |
| 20260502212528 | 19 | 321 | 12.9 | 19.3 | 0.00 | 0.00 | 0.00 | 69 | 1015.3 |